createdAt,value
2022-08-26T00:01:56.897Z,5.95
2022-08-26T00:04:25.499Z,5.28
2022-08-26T00:06:54.039Z,5.25
2022-08-26T00:09:21.065Z,6.10
2022-08-26T00:11:47.820Z,5.35
2022-08-26T00:14:16.325Z,5.47
2022-08-26T00:16:48.215Z,5.75
2022-08-26T00:19:20.130Z,5.50
2022-08-26T00:21:48.666Z,5.40
2022-08-26T00:24:16.205Z,6.05
2022-08-26T00:26:43.820Z,5.70
2022-08-26T00:29:12.315Z,5.80
2022-08-26T00:31:40.491Z,5.57
2022-08-26T00:34:09.479Z,5.75
2022-08-26T00:36:39.251Z,5.15
2022-08-26T00:39:07.435Z,5.18
2022-08-26T00:41:35.550Z,5.63
2022-08-26T00:44:02.507Z,5.70
2022-08-26T00:46:36.902Z,5.80
2022-08-26T00:49:20.049Z,4.63
2022-08-26T00:51:55.930Z,5.10
2022-08-26T00:54:27.331Z,6.18
2022-08-26T00:57:00.835Z,4.75
2022-08-26T00:59:29.280Z,5.68
2022-08-26T01:02:02.710Z,5.40
2022-08-26T01:04:31.418Z,5.40
2022-08-26T01:06:59.150Z,5.43
2022-08-26T01:09:27.057Z,4.65
2022-08-26T01:11:57.586Z,5.13
2022-08-26T01:14:27.219Z,5.43
2022-08-26T01:16:54.591Z,5.63
2022-08-26T01:19:41.737Z,4.88
2022-08-26T01:22:14.280Z,4.88
2022-08-26T01:24:41.722Z,4.60
2022-08-26T01:27:12.468Z,4.43
2022-08-26T01:29:42.730Z,4.55
2022-08-26T01:32:11.624Z,4.80
2022-08-26T01:34:40.066Z,5.60
2022-08-26T01:37:15.894Z,4.63
2022-08-26T01:39:44.904Z,5.10
2022-08-26T01:42:14.666Z,5.07
2022-08-26T01:44:46.299Z,4.60
2022-08-26T01:47:16.685Z,4.82
2022-08-26T01:49:46.739Z,4.38
2022-08-26T01:52:20.892Z,4.63
2022-08-26T01:54:50.567Z,4.75
2022-08-26T01:57:20.300Z,4.63
2022-08-26T01:59:49.145Z,4.63
2022-08-26T02:02:17.155Z,5.38
2022-08-26T02:04:53.273Z,4.75
2022-08-26T02:07:21.755Z,4.72
2022-08-26T02:09:48.543Z,4.90
2022-08-26T02:12:18.402Z,4.93
2022-08-26T02:14:50.210Z,5.15
2022-08-26T02:17:21.641Z,4.90
2022-08-26T02:19:50.387Z,5.28
2022-08-26T02:22:21.011Z,4.53
2022-08-26T02:24:57.396Z,5.13
2022-08-26T02:27:32.824Z,4.85
2022-08-26T02:30:22.863Z,4.13
2022-08-26T02:32:51.857Z,4.78
2022-08-26T02:35:21.674Z,4.80
2022-08-26T02:37:50.653Z,5.10
2022-08-26T02:40:21.965Z,4.53
2022-08-26T02:42:49.370Z,5.07
2022-08-26T02:45:16.325Z,5.63
2022-08-26T02:47:51.479Z,4.80
2022-08-26T02:50:20.032Z,4.90
2022-08-26T02:52:48.334Z,5.30
2022-08-26T02:55:16.107Z,4.85
2022-08-26T02:57:43.551Z,5.03
2022-08-26T03:00:14.569Z,5.15
2022-08-26T03:02:41.359Z,5.20
2022-08-26T03:05:08.560Z,4.57
2022-08-26T03:07:35.326Z,4.18
2022-08-26T03:10:08.295Z,4.28
2022-08-26T03:12:36.014Z,4.90
2022-08-26T03:15:03.331Z,5.35
2022-08-26T03:17:49.221Z,5.97
2022-08-26T03:20:18.289Z,5.00
2022-08-26T03:22:45.227Z,5.22
2022-08-26T03:25:15.312Z,4.78
2022-08-26T03:27:43.015Z,5.20
2022-08-26T03:30:29.996Z,5.32
2022-08-26T03:32:57.187Z,5.45
2022-08-26T03:35:25.594Z,5.80
2022-08-26T03:37:53.635Z,5.47
2022-08-26T03:40:21.140Z,5.45
2022-08-26T03:42:50.035Z,5.07
2022-08-26T03:45:18.531Z,5.25
2022-08-26T03:47:46.493Z,4.82
2022-08-26T03:50:22.875Z,5.45
2022-08-26T03:52:54.159Z,4.95
2022-08-26T03:55:27.322Z,5.13
2022-08-26T03:57:55.024Z,4.97
2022-08-26T04:00:22.209Z,5.65
2022-08-26T04:02:53.245Z,5.32
2022-08-26T04:05:21.928Z,4.97
2022-08-26T04:07:49.775Z,6.07
2022-08-26T04:10:20.373Z,5.28
2022-08-26T04:12:47.692Z,5.18
2022-08-26T04:15:15.725Z,4.78
2022-08-26T04:17:43.351Z,4.82
2022-08-26T04:20:13.999Z,5.05
2022-08-26T04:22:43.275Z,5.20
2022-08-26T04:25:11.393Z,5.07
2022-08-26T04:27:38.772Z,4.78
2022-08-26T04:30:08.974Z,4.40
2022-08-26T04:32:36.658Z,5.10
2022-08-26T04:35:04.686Z,5.10
2022-08-26T04:37:33.552Z,4.68
2022-08-26T04:40:00.665Z,5.50
2022-08-26T04:42:27.498Z,4.30
2022-08-26T04:44:55.946Z,4.57
2022-08-26T04:47:22.839Z,4.85
2022-08-26T04:49:49.883Z,5.22
2022-08-26T04:52:17.378Z,5.00
2022-08-26T04:54:44.280Z,5.55
2022-08-26T04:57:11.098Z,5.43
2022-08-26T04:59:39.444Z,5.25
2022-08-26T05:02:07.481Z,5.05
2022-08-26T05:04:36.229Z,5.18
2022-08-26T05:07:03.239Z,5.18
2022-08-26T05:09:30.525Z,5.07
2022-08-26T05:11:57.678Z,4.90
2022-08-26T05:14:24.522Z,5.13
2022-08-26T05:16:52.150Z,4.88
2022-08-26T05:19:19.503Z,4.97
2022-08-26T05:21:48.420Z,4.43
2022-08-26T05:24:16.131Z,5.18
2022-08-26T05:26:44.535Z,5.00
2022-08-26T05:29:12.255Z,4.82
2022-08-26T05:31:39.243Z,6.20
2022-08-26T05:34:06.931Z,5.28
2022-08-26T05:36:35.517Z,4.97
2022-08-26T05:39:04.250Z,4.85
2022-08-26T05:41:36.497Z,5.13
2022-08-26T05:44:06.352Z,5.40
2022-08-26T05:46:33.749Z,4.50
2022-08-26T05:49:01.659Z,5.05
2022-08-26T05:51:29.287Z,4.45
2022-08-26T05:53:58.545Z,4.90
2022-08-26T05:56:27.899Z,4.75
2022-08-26T05:58:59.746Z,4.43
2022-08-26T06:01:28.602Z,4.30
2022-08-26T06:04:01.841Z,5.22
2022-08-26T06:06:31.935Z,4.38
2022-08-26T06:09:00.703Z,4.22
2022-08-26T06:11:29.278Z,4.70
2022-08-26T06:14:03.619Z,4.80
2022-08-26T06:16:33.492Z,4.80
2022-08-26T06:19:10.209Z,4.85
2022-08-26T06:21:41.618Z,4.45
2022-08-26T06:24:44.713Z,4.32
2022-08-26T06:27:15.187Z,4.35
2022-08-26T06:29:42.710Z,4.60
2022-08-26T06:32:09.571Z,4.38
2022-08-26T06:34:36.710Z,4.43
2022-08-26T06:37:03.872Z,4.93
2022-08-26T06:39:33.219Z,4.15
2022-08-26T06:42:02.680Z,5.97
2022-08-26T06:44:33.744Z,4.57
2022-08-26T06:47:00.979Z,5.47
2022-08-26T06:49:27.931Z,5.35
2022-08-26T06:51:58.389Z,4.43
2022-08-26T06:54:26.479Z,4.18
2022-08-26T06:56:53.901Z,4.28
2022-08-26T06:59:21.868Z,4.18
2022-08-26T07:01:49.814Z,4.85
2022-08-26T07:04:21.835Z,4.90
2022-08-26T07:06:52.389Z,4.85
2022-08-26T07:09:25.922Z,4.88
2022-08-26T07:11:56.201Z,4.43
2022-08-26T07:14:25.230Z,4.65
2022-08-26T07:16:53.612Z,4.15
2022-08-26T07:19:31.185Z,4.93
2022-08-26T07:22:02.155Z,4.75
2022-08-26T07:24:31.214Z,4.40
2022-08-26T07:27:05.809Z,4.97
2022-08-26T07:29:34.395Z,4.67
2022-08-26T07:32:01.878Z,3.95
2022-08-26T07:34:28.879Z,4.75
2022-08-26T07:36:57.069Z,4.25
2022-08-26T07:39:25.125Z,3.83
2022-08-26T07:41:52.409Z,4.38
2022-08-26T07:44:19.689Z,4.63
2022-08-26T07:46:52.368Z,3.95
2022-08-26T07:49:22.915Z,6.20
2022-08-26T07:51:51.424Z,4.53
2022-08-26T07:54:18.805Z,4.50
2022-08-26T07:56:46.155Z,4.28
2022-08-26T07:59:15.127Z,4.25
2022-08-26T08:01:45.025Z,4.03
2022-08-26T08:04:19.429Z,5.07
2022-08-26T08:06:52.868Z,4.55
2022-08-26T08:09:19.977Z,3.85
2022-08-26T08:11:49.935Z,4.35
2022-08-26T08:14:22.359Z,4.10
2022-08-26T08:16:54.820Z,5.03
2022-08-26T08:19:23.798Z,4.60
2022-08-26T08:21:50.922Z,3.97
2022-08-26T08:24:18.173Z,4.38
2022-08-26T08:26:46.101Z,3.97
2022-08-26T08:29:16.326Z,3.83
2022-08-26T08:31:56.573Z,3.95
2022-08-26T08:34:27.350Z,4.00
2022-08-26T08:36:54.514Z,4.60
2022-08-26T08:39:22.338Z,4.20
2022-08-26T08:42:11.982Z,4.40
2022-08-26T08:44:43.874Z,5.15
2022-08-26T08:47:19.907Z,4.03
2022-08-26T08:49:52.920Z,3.97
2022-08-26T08:52:25.876Z,4.65
2022-08-26T08:54:58.218Z,3.40
2022-08-26T08:57:25.400Z,3.65
2022-08-26T09:00:09.085Z,4.07
2022-08-26T09:02:48.249Z,3.00
2022-08-26T09:05:32.001Z,2.67
2022-08-26T09:08:12.045Z,2.95
2022-08-26T09:10:50.031Z,3.17
2022-08-26T09:13:25.067Z,2.72
2022-08-26T09:16:02.336Z,2.95
2022-08-26T09:19:04.842Z,2.70
2022-08-26T09:21:32.402Z,2.78
2022-08-26T09:23:59.977Z,2.50
2022-08-26T09:26:41.261Z,2.75
2022-08-26T09:35:28.060Z,2.53
2022-08-26T09:37:55.661Z,1.80
2022-08-26T09:40:34.683Z,1.95
2022-08-26T09:43:22.058Z,2.25
2022-08-26T09:45:58.425Z,1.90
2022-08-26T09:48:31.327Z,3.08
2022-08-26T09:51:03.613Z,2.10
2022-08-26T09:53:50.125Z,2.30
2022-08-26T09:56:36.823Z,2.60
2022-08-26T09:59:11.154Z,2.58
2022-08-26T10:01:42.165Z,2.45
2022-08-26T10:04:16.693Z,2.22
2022-08-26T10:06:59.204Z,1.67
2022-08-26T10:09:28.157Z,1.85
2022-08-26T10:12:08.680Z,2.00
2022-08-26T10:17:28.101Z,2.35
2022-08-26T10:20:09.802Z,1.83
2022-08-26T10:22:58.816Z,1.50
2022-08-26T10:25:32.621Z,2.30
2022-08-26T10:28:08.802Z,1.92
2022-08-26T10:30:45.676Z,1.25
2022-08-26T10:33:15.414Z,2.10
2022-08-26T10:35:54.010Z,1.33
2022-08-26T10:38:29.499Z,1.15
2022-08-26T10:41:13.106Z,1.52
2022-08-26T10:43:52.150Z,1.00
2022-08-26T10:46:27.270Z,1.20
2022-08-26T10:49:03.231Z,1.15
2022-08-26T10:51:38.668Z,1.08
2022-08-26T10:54:36.748Z,1.00
2022-08-26T10:57:29.918Z,1.45
2022-08-26T11:00:31.352Z,1.30
2022-08-26T11:03:06.667Z,2.30
2022-08-26T11:06:25.839Z,1.50
2022-08-26T11:08:57.322Z,1.30
2022-08-26T11:11:42.706Z,1.98
2022-08-26T11:14:09.527Z,2.17
2022-08-26T11:16:54.779Z,2.10
2022-08-26T11:20:03.890Z,1.83
2022-08-26T11:22:47.409Z,1.95
2022-08-26T11:25:18.774Z,1.35
2022-08-26T11:27:48.581Z,1.80
2022-08-26T11:30:15.927Z,1.90
2022-08-26T11:32:50.222Z,1.70
2022-08-26T11:35:37.673Z,2.35
2022-08-26T11:38:20.422Z,1.92
2022-08-26T11:41:20.054Z,1.95
2022-08-26T11:43:52.380Z,2.03
2022-08-26T11:46:29.492Z,2.40
2022-08-26T11:49:06.016Z,1.98
2022-08-26T11:51:38.198Z,1.95
2022-08-26T11:54:14.514Z,2.03
2022-08-26T11:56:48.866Z,2.20
2022-08-26T11:59:26.456Z,2.38
2022-08-26T12:01:57.588Z,1.90
2022-08-26T12:04:30.438Z,1.95
2022-08-26T12:07:00.731Z,1.50
2022-08-26T12:09:37.325Z,2.10
2022-08-26T12:12:18.879Z,2.22
2022-08-26T12:14:46.092Z,1.55
2022-08-26T12:17:16.976Z,1.77
2022-08-26T12:19:44.176Z,1.33
2022-08-26T12:22:29.754Z,1.40
2022-08-26T12:25:02.929Z,1.52
2022-08-26T12:27:41.858Z,1.93
2022-08-26T12:30:18.047Z,1.58
2022-08-26T12:33:22.250Z,2.15
2022-08-26T12:35:56.328Z,1.65
2022-08-26T12:38:25.542Z,1.38
2022-08-26T12:40:53.072Z,1.33
2022-08-26T12:43:47.339Z,1.38
2022-08-26T12:46:18.334Z,1.65
2022-08-26T12:48:49.721Z,1.42
2022-08-26T12:51:25.784Z,1.92
2022-08-26T12:53:53.835Z,2.13
2022-08-26T12:56:36.604Z,1.70
2022-08-26T12:59:12.191Z,1.77
2022-08-26T13:01:43.847Z,1.30
2022-08-26T13:04:37.901Z,1.83
2022-08-26T13:07:26.322Z,2.00
2022-08-26T13:09:55.797Z,1.45
2022-08-26T13:12:32.293Z,2.13
2022-08-26T13:15:01.332Z,2.20
2022-08-26T13:17:29.898Z,2.63
2022-08-26T13:20:03.227Z,1.85
2022-08-26T13:22:31.091Z,1.83
2022-08-26T13:24:58.004Z,2.15
2022-08-26T13:27:27.305Z,1.90
2022-08-26T13:29:55.046Z,1.63
2022-08-26T13:32:22.655Z,1.58
2022-08-26T13:34:55.282Z,1.60
2022-08-26T13:37:24.327Z,2.15
2022-08-26T13:40:02.474Z,1.75
2022-08-26T13:42:29.815Z,1.50
2022-08-26T13:44:58.229Z,1.60
2022-08-26T13:47:26.105Z,1.40
2022-08-26T13:49:56.322Z,2.30
2022-08-26T13:52:30.209Z,1.50
2022-08-26T13:55:00.277Z,1.85
2022-08-26T13:57:28.896Z,1.63
2022-08-26T13:59:59.079Z,1.70
2022-08-26T14:02:27.095Z,1.85
2022-08-26T14:04:55.340Z,1.60
2022-08-26T14:07:22.768Z,1.55
2022-08-26T14:09:50.542Z,2.13
2022-08-26T14:12:17.928Z,1.70
2022-08-26T14:14:45.104Z,2.22
2022-08-26T14:17:17.811Z,2.33
2022-08-26T14:19:49.482Z,1.80
2022-08-26T14:22:19.100Z,1.35
2022-08-26T14:24:49.810Z,1.55
2022-08-26T14:27:17.819Z,1.55
2022-08-26T14:32:34.676Z,1.40
2022-08-26T14:35:22.157Z,1.65
2022-08-26T14:37:52.844Z,1.60
2022-08-26T14:40:22.283Z,1.35
2022-08-26T14:42:53.964Z,1.27
2022-08-26T14:45:23.525Z,1.35
2022-08-26T14:47:52.446Z,2.25
2022-08-26T14:50:23.674Z,1.50
2022-08-26T14:53:13.228Z,1.85
2022-08-26T14:55:44.651Z,1.40
2022-08-26T14:58:12.819Z,1.55
2022-08-26T15:00:39.753Z,2.00
2022-08-26T15:03:08.508Z,2.08
2022-08-26T15:05:35.784Z,1.98
2022-08-26T15:08:10.566Z,2.10
2022-08-26T15:10:38.761Z,1.77
2022-08-26T15:13:05.774Z,2.00
2022-08-26T15:15:32.891Z,1.38
2022-08-26T15:17:59.882Z,1.83
2022-08-26T15:20:27.037Z,1.80
2022-08-26T15:22:54.234Z,2.08
2022-08-26T15:25:21.816Z,2.00
2022-08-26T15:27:48.921Z,1.55
2022-08-26T15:30:16.791Z,1.65
2022-08-26T15:32:45.771Z,2.63
2022-08-26T15:35:12.855Z,1.63
2022-08-26T15:37:40.382Z,1.90
2022-08-26T15:40:10.774Z,1.77
2022-08-26T15:42:38.097Z,2.00
2022-08-26T15:45:05.933Z,1.95
2022-08-26T15:47:39.315Z,1.83
2022-08-26T15:53:05.968Z,2.05
2022-08-26T15:55:38.723Z,2.08
2022-08-26T15:58:05.856Z,2.10
2022-08-26T16:00:37.117Z,2.63
2022-08-26T16:03:06.991Z,2.75
2022-08-26T16:05:47.245Z,2.97
2022-08-26T16:08:22.506Z,2.38
2022-08-26T16:10:54.570Z,3.15
2022-08-26T16:13:40.076Z,2.25
2022-08-26T16:16:09.815Z,2.28
2022-08-26T16:18:38.227Z,2.00
2022-08-26T16:21:13.795Z,2.22
2022-08-26T16:23:46.133Z,3.72
2022-08-26T16:26:17.755Z,2.78
2022-08-26T16:28:45.521Z,2.75
2022-08-26T16:31:16.674Z,3.08
2022-08-26T16:33:43.942Z,3.33
2022-08-26T16:36:11.560Z,3.85
2022-08-26T16:38:39.843Z,3.55
2022-08-26T16:41:17.281Z,2.78
2022-08-26T16:43:44.669Z,2.55
2022-08-26T16:46:15.285Z,2.95
2022-08-26T16:48:44.160Z,2.50
2022-08-26T16:51:16.427Z,2.22
2022-08-26T16:53:50.331Z,2.45
2022-08-26T16:56:20.794Z,2.43
2022-08-26T16:58:48.795Z,2.10
2022-08-26T17:01:16.743Z,2.33
2022-08-26T17:03:45.369Z,1.83
2022-08-26T17:06:13.263Z,2.10
2022-08-26T17:08:43.275Z,2.50
2022-08-26T17:13:52.233Z,2.42
2022-08-26T17:16:26.238Z,3.47
2022-08-26T17:18:57.281Z,2.30
2022-08-26T17:21:26.038Z,1.92
2022-08-26T17:23:54.270Z,2.80
2022-08-26T17:26:21.523Z,2.67
2022-08-26T17:28:51.741Z,2.58
2022-08-26T17:31:19.936Z,1.85
2022-08-26T17:33:53.359Z,2.97
2022-08-26T17:36:23.504Z,2.55
2022-08-26T17:39:00.978Z,2.95
2022-08-26T17:41:30.533Z,2.58
2022-08-26T17:43:57.551Z,3.17
2022-08-26T17:46:25.135Z,2.97
2022-08-26T17:48:54.083Z,2.92
2022-08-26T17:51:26.421Z,4.07
2022-08-26T17:53:54.170Z,3.20
2022-08-26T17:56:29.120Z,3.53
2022-08-26T17:59:02.379Z,3.15
2022-08-26T18:01:30.815Z,3.97
2022-08-26T18:04:01.671Z,3.88
2022-08-26T18:06:33.627Z,5.45
2022-08-26T18:09:05.397Z,3.80
2022-08-26T18:11:33.711Z,4.30
2022-08-26T18:14:09.910Z,4.40
2022-08-26T18:16:41.661Z,3.80
2022-08-26T18:19:12.117Z,3.87
2022-08-26T18:21:39.231Z,3.50
2022-08-26T18:24:13.325Z,3.22
2022-08-26T18:26:50.809Z,3.22
2022-08-26T18:29:29.440Z,3.45
2022-08-26T18:31:59.351Z,3.42
2022-08-26T18:34:31.510Z,4.47
2022-08-26T18:36:59.634Z,4.60
2022-08-26T18:39:28.902Z,3.22
2022-08-26T18:41:56.221Z,3.70
2022-08-26T18:44:23.501Z,3.75
2022-08-26T18:46:54.131Z,3.78
2022-08-26T18:49:24.038Z,3.28
2022-08-26T18:51:53.706Z,4.28
2022-08-26T18:54:24.763Z,4.00
2022-08-26T18:56:52.086Z,4.95
2022-08-26T18:59:19.376Z,4.57
2022-08-26T19:04:22.139Z,5.28
2022-08-26T19:06:50.898Z,5.43
2022-08-26T19:09:19.783Z,5.60
2022-08-26T19:11:49.795Z,5.63
2022-08-26T19:14:19.329Z,5.40
2022-08-26T19:16:49.942Z,5.78
2022-08-26T19:19:17.520Z,6.25
2022-08-26T19:21:44.575Z,6.57
2022-08-26T19:24:17.330Z,7.38
2022-08-26T19:26:57.044Z,6.80
2022-08-26T19:29:29.866Z,6.72
2022-08-26T19:31:56.934Z,6.85
2022-08-26T19:34:24.198Z,6.88
2022-08-26T19:36:53.251Z,6.72
2022-08-26T19:39:20.932Z,6.43
2022-08-26T19:41:47.974Z,6.30
2022-08-26T19:44:36.343Z,6.90
2022-08-26T19:47:04.505Z,6.90
2022-08-26T19:49:31.872Z,7.18
2022-08-26T19:51:58.712Z,6.63
2022-08-26T19:54:25.625Z,6.45
2022-08-26T19:56:52.731Z,6.93
2022-08-26T19:59:20.027Z,7.25
2022-08-26T20:01:47.191Z,6.47
2022-08-26T20:04:27.900Z,5.63
2022-08-26T20:06:57.570Z,5.97
2022-08-26T20:09:28.661Z,5.82
2022-08-26T20:11:56.752Z,6.80
2022-08-26T20:14:25.775Z,6.18
2022-08-26T20:16:52.746Z,6.13
2022-08-26T20:19:38.352Z,6.82
2022-08-26T20:22:05.940Z,6.20
2022-08-26T20:24:34.296Z,6.75
2022-08-26T20:27:06.858Z,5.45
2022-08-26T20:29:35.976Z,5.68
2022-08-26T20:32:06.170Z,6.43
2022-08-26T20:34:34.539Z,5.57
2022-08-26T20:37:02.161Z,6.43
2022-08-26T20:39:29.914Z,6.25
2022-08-26T20:41:58.193Z,5.47
2022-08-26T20:44:25.602Z,5.65
2022-08-26T20:46:53.064Z,5.88
2022-08-26T20:49:20.052Z,5.65
2022-08-26T20:51:51.471Z,5.35
2022-08-26T20:54:22.170Z,5.65
2022-08-26T20:56:52.879Z,5.90
2022-08-26T20:59:21.018Z,5.35
2022-08-26T21:01:48.674Z,5.13
2022-08-26T21:04:21.845Z,5.20
2022-08-26T21:06:52.596Z,4.93
2022-08-26T21:09:22.558Z,5.20
2022-08-26T21:11:50.515Z,5.55
2022-08-26T21:14:18.964Z,5.43
2022-08-26T21:16:46.532Z,4.93
2022-08-26T21:19:18.049Z,5.38
2022-08-26T21:21:46.900Z,5.03
2022-08-26T21:24:13.864Z,5.53
2022-08-26T21:26:41.281Z,5.30
2022-08-26T21:29:14.409Z,5.43
2022-08-26T21:31:46.708Z,5.38
2022-08-26T21:34:17.340Z,4.70
2022-08-26T21:37:00.162Z,4.60
2022-08-26T21:45:28.808Z,5.05
2022-08-26T21:48:16.042Z,4.38
2022-08-26T21:51:07.569Z,4.55
2022-08-26T21:54:49.520Z,4.70
2022-08-26T21:57:36.675Z,4.95
2022-08-26T22:00:57.865Z,4.68
2022-08-26T22:03:25.531Z,4.38
2022-08-26T22:05:54.978Z,5.00
2022-08-26T22:08:31.024Z,4.93
2022-08-26T22:11:07.285Z,5.03
2022-08-26T22:13:37.718Z,4.47
2022-08-26T22:16:06.753Z,4.63
2022-08-26T22:18:37.828Z,5.05
2022-08-26T22:21:36.438Z,4.90
2022-08-26T22:24:14.985Z,3.88
2022-08-26T22:26:49.206Z,4.70
2022-08-26T22:29:19.065Z,4.63
2022-08-26T22:31:53.501Z,4.68
2022-08-26T22:34:23.318Z,5.18
2022-08-26T22:36:51.200Z,4.78
2022-08-26T22:39:23.417Z,4.47
2022-08-26T22:41:51.296Z,4.82
2022-08-26T22:44:19.326Z,4.47
2022-08-26T22:46:48.313Z,4.70
2022-08-26T22:49:19.435Z,4.68
2022-08-26T22:51:54.724Z,5.00
2022-08-26T22:58:00.199Z,4.88
2022-08-26T23:00:39.630Z,4.90
2022-08-26T23:03:11.355Z,5.25
2022-08-26T23:05:45.376Z,4.50
2022-08-26T23:12:07.056Z,5.03
2022-08-26T23:15:09.199Z,5.07
2022-08-26T23:18:50.881Z,5.18
2022-08-26T23:22:04.941Z,4.93
2022-08-26T23:25:29.053Z,4.60
2022-08-26T23:28:50.090Z,5.50
2022-08-26T23:34:32.223Z,4.47
2022-08-26T23:37:11.731Z,4.78
2022-08-26T23:39:45.970Z,4.55
2022-08-26T23:42:36.063Z,4.72
2022-08-26T23:45:12.832Z,4.40
2022-08-26T23:48:11.790Z,4.93
2022-08-26T23:51:26.633Z,4.95
2022-08-26T23:54:19.272Z,4.45
2022-08-26T23:56:50.486Z,4.93
2022-08-26T23:59:29.092Z,4.65
